createdAt,value
2019-03-03T00:01:23.337Z,80.97
2019-03-03T00:03:54.285Z,80.96
2019-03-03T00:06:25.550Z,80.48
2019-03-03T00:08:55.503Z,80.41
2019-03-03T00:11:25.483Z,80.29
2019-03-03T00:13:55.537Z,80.37
2019-03-03T00:16:25.343Z,80.26
2019-03-03T00:18:55.310Z,80.24
2019-03-03T00:21:25.521Z,80.29
2019-03-03T00:23:55.475Z,80.30
2019-03-03T00:26:25.565Z,80.08
2019-03-03T00:28:55.510Z,80.03
2019-03-03T00:31:37.476Z,79.86
2019-03-03T00:34:07.438Z,79.82
2019-03-03T00:36:55.318Z,79.96
2019-03-03T00:39:47.580Z,79.99
2019-03-03T00:42:35.765Z,79.81
2019-03-03T00:45:15.682Z,79.75
2019-03-03T00:48:03.501Z,79.50
2019-03-03T00:50:41.630Z,79.52
2019-03-03T00:53:34.308Z,79.65
2019-03-03T00:56:13.188Z,79.64
2019-03-03T00:59:00.929Z,79.62
2019-03-03T01:01:36.470Z,79.54
2019-03-03T01:04:18.665Z,79.38
2019-03-03T01:07:02.513Z,79.47
2019-03-03T01:09:38.779Z,79.49
2019-03-03T01:12:17.192Z,79.15
2019-03-03T01:15:13.863Z,79.18
2019-03-03T01:17:49.507Z,79.25
2019-03-03T01:20:41.487Z,79.18
2019-03-03T01:23:33.681Z,79.20
2019-03-03T01:26:03.903Z,79.28
2019-03-03T01:28:35.253Z,79.29
2019-03-03T01:31:05.423Z,79.07
2019-03-03T01:33:35.372Z,79.01
2019-03-03T01:36:05.662Z,79.07
2019-03-03T01:38:35.829Z,79.18
2019-03-03T01:41:06.379Z,79.16
2019-03-03T01:43:36.412Z,79.15
2019-03-03T01:46:06.395Z,79.26
2019-03-03T01:48:36.369Z,79.21
2019-03-03T01:51:06.588Z,79.18
2019-03-03T01:53:37.992Z,79.22
2019-03-03T01:56:08.268Z,79.19
2019-03-03T01:58:38.114Z,79.05
2019-03-03T02:01:08.075Z,79.10
2019-03-03T02:03:38.355Z,79.09
2019-03-03T02:06:09.134Z,78.96
2019-03-03T02:08:39.331Z,78.97
2019-03-03T02:11:09.608Z,78.85
2019-03-03T02:13:39.464Z,78.94
2019-03-03T02:16:09.724Z,78.76
2019-03-03T02:18:39.684Z,78.94
2019-03-03T02:21:09.491Z,79.17
2019-03-03T02:23:39.360Z,79.17
2019-03-03T02:26:09.333Z,78.93
2019-03-03T02:28:39.223Z,78.89
2019-03-03T02:31:09.218Z,78.76
2019-03-03T02:33:39.302Z,78.59
2019-03-03T02:36:09.257Z,78.46
2019-03-03T02:38:39.232Z,78.39
2019-03-03T02:41:10.209Z,78.21
2019-03-03T02:43:41.606Z,78.35
2019-03-03T02:46:12.090Z,78.36
2019-03-03T02:48:42.037Z,78.56
2019-03-03T02:51:11.994Z,78.61
2019-03-03T02:53:41.915Z,78.73
2019-03-03T02:56:11.899Z,78.62
2019-03-03T02:58:41.799Z,78.74
2019-03-03T03:01:20.958Z,78.82
2019-03-03T03:03:50.930Z,78.89
2019-03-03T03:06:27.474Z,78.89
2019-03-03T03:09:31.388Z,78.92
2019-03-03T03:12:07.662Z,78.94
2019-03-03T03:14:54.788Z,79.02
2019-03-03T03:17:34.655Z,78.97
2019-03-03T03:20:14.980Z,78.87
2019-03-03T03:23:02.849Z,78.77
2019-03-03T03:26:10.108Z,78.84
2019-03-03T03:28:58.993Z,78.74
2019-03-03T03:31:40.950Z,78.81
2019-03-03T03:34:22.181Z,78.83
2019-03-03T03:36:57.575Z,78.91
2019-03-03T03:39:33.945Z,78.80
2019-03-03T03:42:10.001Z,78.88
2019-03-03T03:45:14.354Z,78.85
2019-03-03T03:48:00.752Z,78.81
2019-03-03T03:50:48.844Z,78.83
2019-03-03T03:53:41.510Z,78.91
2019-03-03T03:56:33.260Z,78.87
2019-03-03T03:59:22.205Z,79.17
2019-03-03T04:02:05.469Z,79.12
2019-03-03T04:04:57.709Z,79.20
2019-03-03T04:07:40.296Z,79.21
2019-03-03T04:10:29.253Z,79.16
2019-03-03T04:13:21.205Z,79.21
2019-03-03T04:16:08.843Z,79.18
2019-03-03T04:18:56.868Z,79.21
2019-03-03T04:21:44.703Z,79.20
2019-03-03T04:24:36.953Z,79.08
2019-03-03T04:27:16.666Z,79.05
2019-03-03T04:30:08.285Z,78.85
2019-03-03T04:32:49.040Z,78.97
2019-03-03T04:35:26.813Z,79.01
2019-03-03T04:38:04.047Z,78.96
2019-03-03T04:40:43.671Z,78.93
2019-03-03T04:43:38.686Z,78.74
2019-03-03T04:46:16.477Z,78.78
2019-03-03T04:49:15.095Z,78.71
2019-03-03T04:51:56.251Z,78.78
2019-03-03T04:54:45.596Z,78.82
2019-03-03T04:57:33.486Z,78.84
2019-03-03T05:00:31.927Z,78.79
2019-03-03T05:03:17.789Z,78.43
2019-03-03T05:06:09.941Z,78.50
2019-03-03T05:08:48.363Z,78.66
2019-03-03T05:12:31.915Z,78.65
2019-03-03T05:15:26.563Z,78.72
2019-03-03T05:18:02.229Z,78.43
2019-03-03T05:20:47.729Z,78.58
2019-03-03T05:23:17.638Z,78.65
2019-03-03T05:25:47.902Z,78.52
2019-03-03T05:28:18.424Z,78.52
2019-03-03T05:30:48.380Z,78.50
2019-03-03T05:33:18.193Z,78.53
2019-03-03T05:35:48.164Z,78.60
2019-03-03T05:38:18.133Z,78.60
2019-03-03T05:40:48.395Z,78.49
2019-03-03T05:43:18.374Z,78.52
2019-03-03T05:45:48.657Z,78.49
2019-03-03T05:48:18.526Z,78.45
2019-03-03T05:50:48.407Z,78.48
2019-03-03T05:53:18.377Z,78.59
2019-03-03T05:55:49.656Z,78.46
2019-03-03T05:58:19.629Z,78.42
2019-03-03T06:00:49.603Z,78.47
2019-03-03T06:03:19.518Z,78.37
2019-03-03T06:05:49.415Z,78.38
2019-03-03T06:08:19.293Z,78.46
2019-03-03T06:10:49.187Z,78.37
2019-03-03T06:13:19.053Z,78.41
2019-03-03T06:15:49.013Z,78.30
2019-03-03T06:18:18.969Z,78.22
2019-03-03T06:20:49.182Z,78.24
2019-03-03T06:23:19.077Z,78.12
2019-03-03T06:25:49.211Z,78.04
2019-03-03T06:28:19.167Z,78.02
2019-03-03T06:30:51.063Z,78.15
2019-03-03T06:33:21.018Z,78.14
2019-03-03T06:35:52.835Z,78.05
2019-03-03T06:38:23.902Z,77.93
2019-03-03T06:40:54.037Z,78.00
2019-03-03T06:43:24.102Z,77.91
2019-03-03T06:45:54.449Z,77.91
2019-03-03T06:48:24.332Z,77.96
2019-03-03T06:50:54.218Z,78.13
2019-03-03T06:53:24.182Z,78.63
2019-03-03T06:55:54.527Z,78.91
2019-03-03T06:58:24.766Z,79.02
2019-03-03T07:00:54.747Z,79.07
2019-03-03T07:03:25.522Z,79.25
2019-03-03T07:05:55.546Z,79.34
2019-03-03T07:08:25.840Z,79.22
2019-03-03T07:10:55.811Z,79.46
2019-03-03T07:13:26.044Z,79.51
2019-03-03T07:15:56.317Z,79.31
2019-03-03T07:18:26.264Z,79.28
2019-03-03T07:20:56.210Z,79.22
2019-03-03T07:23:26.896Z,79.29
2019-03-03T07:25:56.847Z,79.08
2019-03-03T07:28:28.287Z,79.24
2019-03-03T07:30:58.571Z,79.34
2019-03-03T07:33:36.673Z,79.11
2019-03-03T07:36:04.910Z,79.04
2019-03-03T07:38:35.146Z,79.15
2019-03-03T07:41:05.200Z,79.20
2019-03-03T07:43:35.097Z,79.10
2019-03-03T07:46:05.055Z,78.96
2019-03-03T07:48:35.378Z,78.87
2019-03-03T07:51:05.644Z,78.94
2019-03-03T07:53:35.636Z,78.91
2019-03-03T07:56:05.590Z,78.97
2019-03-03T07:58:35.459Z,78.93
2019-03-03T08:01:05.408Z,78.93
2019-03-03T08:03:36.881Z,78.92
2019-03-03T08:06:06.847Z,78.86
2019-03-03T08:08:37.077Z,78.80
2019-03-03T08:11:07.044Z,78.76
2019-03-03T08:13:37.051Z,78.26
2019-03-03T08:16:07.020Z,78.49
2019-03-03T08:18:38.616Z,78.52
2019-03-03T08:21:08.897Z,78.77
2019-03-03T08:23:38.712Z,78.74
2019-03-03T08:26:09.203Z,78.75
2019-03-03T08:28:39.226Z,78.86
2019-03-03T08:31:09.204Z,78.21
2019-03-03T08:33:39.160Z,78.52
2019-03-03T08:36:09.706Z,78.59
2019-03-03T08:38:39.699Z,78.80
2019-03-03T08:41:09.596Z,78.85
2019-03-03T08:43:43.877Z,78.69
2019-03-03T08:46:48.352Z,78.78
2019-03-03T08:49:26.906Z,78.95
2019-03-03T08:52:17.291Z,78.83
2019-03-03T08:55:04.561Z,78.85
2019-03-03T08:57:45.791Z,78.95
2019-03-03T09:00:28.723Z,79.59
2019-03-03T09:03:08.769Z,80.52
2019-03-03T09:06:06.035Z,80.79
2019-03-03T09:09:00.863Z,81.06
2019-03-03T09:11:38.016Z,81.35
2019-03-03T09:14:17.497Z,81.95
2019-03-03T09:16:54.946Z,82.15
2019-03-03T09:19:43.324Z,82.90
2019-03-03T09:22:26.617Z,83.32
2019-03-03T09:25:14.182Z,83.70
2019-03-03T09:27:51.738Z,84.14
2019-03-03T09:30:39.865Z,84.70
2019-03-03T09:33:50.098Z,84.75
2019-03-03T09:36:39.544Z,85.00
2019-03-03T09:39:32.855Z,85.90
2019-03-03T09:42:10.173Z,86.58
2019-03-03T09:44:55.022Z,87.43
2019-03-03T09:47:34.569Z,87.50
2019-03-03T09:50:16.048Z,87.63
2019-03-03T09:53:03.881Z,88.25
2019-03-03T09:55:49.786Z,88.10
2019-03-03T09:58:38.694Z,88.03
2019-03-03T10:01:36.551Z,88.47
2019-03-03T10:04:31.031Z,88.11
2019-03-03T10:07:28.946Z,87.99
2019-03-03T10:10:07.303Z,88.22
2019-03-03T10:12:45.887Z,88.19
2019-03-03T10:15:40.602Z,88.35
2019-03-03T10:18:19.198Z,88.19
2019-03-03T10:21:04.129Z,88.62
2019-03-03T10:23:51.775Z,88.39
2019-03-03T10:26:34.965Z,88.69
2019-03-03T10:29:32.671Z,89.01
2019-03-03T10:32:31.246Z,89.17
2019-03-03T10:35:18.814Z,89.30
2019-03-03T10:38:36.134Z,89.25
2019-03-03T10:41:39.095Z,89.21
2019-03-03T10:44:29.032Z,89.45
2019-03-03T10:47:33.536Z,89.34
2019-03-03T10:50:14.817Z,90.04
2019-03-03T10:53:03.953Z,89.87
2019-03-03T10:55:43.354Z,89.44
2019-03-03T10:58:23.977Z,89.75
2019-03-03T11:01:08.562Z,89.66
2019-03-03T11:03:56.721Z,89.87
2019-03-03T11:06:55.024Z,89.70
2019-03-03T11:09:31.535Z,89.63
2019-03-03T11:12:23.159Z,89.96
2019-03-03T11:14:59.440Z,89.50
2019-03-03T11:17:54.192Z,89.81
2019-03-03T11:20:42.303Z,90.32
2019-03-03T11:23:37.147Z,91.06
2019-03-03T11:26:22.260Z,91.32
2019-03-03T11:29:10.268Z,91.57
2019-03-03T11:31:52.907Z,91.73
2019-03-03T11:34:41.547Z,91.73
2019-03-03T11:37:21.924Z,91.64
2019-03-03T11:40:10.314Z,91.70
2019-03-03T11:43:02.323Z,91.42
2019-03-03T11:45:50.131Z,91.51
2019-03-03T11:48:52.622Z,91.53
2019-03-03T11:51:44.247Z,91.55
2019-03-03T11:54:22.314Z,91.47
2019-03-03T11:56:58.598Z,91.33
2019-03-03T11:59:57.155Z,91.22
2019-03-03T12:03:04.851Z,91.20
2019-03-03T12:05:40.098Z,90.76
2019-03-03T12:08:29.055Z,90.67
2019-03-03T12:11:16.489Z,90.25
2019-03-03T12:14:05.341Z,90.43
2019-03-03T12:16:52.958Z,90.49
2019-03-03T12:19:48.271Z,90.56
2019-03-03T12:22:34.183Z,90.49
2019-03-03T12:25:31.160Z,90.61
2019-03-03T12:28:12.713Z,90.57
2019-03-03T12:31:07.665Z,90.36
2019-03-03T12:34:02.727Z,90.08
2019-03-03T12:36:40.128Z,89.87
2019-03-03T12:39:19.534Z,89.38
2019-03-03T12:42:13.732Z,89.14
2019-03-03T12:45:11.446Z,88.95
2019-03-03T12:47:59.436Z,88.28
2019-03-03T12:50:36.712Z,87.57
2019-03-03T12:53:31.787Z,86.83
2019-03-03T12:56:30.547Z,86.38
2019-03-03T12:59:15.263Z,85.82
2019-03-03T13:01:55.856Z,85.73
2019-03-03T13:04:37.386Z,85.41
2019-03-03T13:07:34.892Z,85.56
2019-03-03T13:10:19.467Z,84.95
2019-03-03T13:13:20.924Z,84.37
2019-03-03T13:16:09.976Z,84.22
2019-03-03T13:18:57.099Z,84.23
2019-03-03T13:21:49.608Z,83.92
2019-03-03T13:24:29.996Z,83.02
2019-03-03T13:27:18.158Z,83.17
2019-03-03T13:30:05.831Z,83.66
2019-03-03T13:32:45.524Z,82.93
2019-03-03T13:35:33.949Z,82.37
2019-03-03T13:38:12.980Z,82.80
2019-03-03T13:41:00.789Z,82.31
2019-03-03T13:43:30.885Z,82.26
2019-03-03T13:46:01.385Z,82.40
2019-03-03T13:48:31.622Z,82.41
2019-03-03T13:51:01.937Z,81.99
2019-03-03T13:53:32.240Z,81.36
2019-03-03T13:56:02.894Z,81.67
2019-03-03T13:58:32.978Z,82.18
2019-03-03T14:01:03.313Z,81.56
2019-03-03T14:03:33.297Z,81.77
2019-03-03T14:06:03.260Z,81.37
2019-03-03T14:08:33.212Z,80.84
2019-03-03T14:11:03.179Z,80.98
2019-03-03T14:13:33.513Z,81.06
2019-03-03T14:16:03.481Z,81.04
2019-03-03T14:18:33.363Z,81.03
2019-03-03T14:21:03.337Z,81.03
2019-03-03T14:23:34.342Z,80.71
2019-03-03T14:26:04.631Z,80.93
2019-03-03T14:28:34.599Z,81.38
2019-03-03T14:31:04.562Z,80.91
2019-03-03T14:33:35.684Z,81.41
2019-03-03T14:36:05.878Z,81.74
2019-03-03T14:38:35.825Z,81.49
2019-03-03T14:41:05.898Z,81.97
2019-03-03T14:43:36.902Z,81.63
2019-03-03T14:46:06.818Z,81.64
2019-03-03T14:48:36.698Z,81.29
2019-03-03T14:51:06.796Z,81.56
2019-03-03T14:53:37.965Z,81.60
2019-03-03T14:56:07.938Z,81.26
2019-03-03T14:58:38.017Z,80.80
2019-03-03T15:01:07.877Z,80.97
2019-03-03T15:03:37.752Z,81.06
2019-03-03T15:06:07.758Z,81.10
2019-03-03T15:08:38.167Z,81.34
2019-03-03T15:11:08.094Z,81.27
2019-03-03T15:13:38.080Z,81.67
2019-03-03T15:16:08.343Z,81.75
2019-03-03T15:18:38.330Z,81.50
2019-03-03T15:21:10.040Z,81.49
2019-03-03T15:23:40.386Z,81.33
2019-03-03T15:26:10.734Z,81.14
2019-03-03T15:28:41.775Z,80.86
2019-03-03T15:31:12.454Z,81.03
2019-03-03T15:33:42.432Z,81.24
2019-03-03T15:36:12.618Z,81.27
2019-03-03T15:38:42.584Z,81.24
2019-03-03T15:41:12.863Z,81.22
2019-03-03T15:43:42.870Z,81.02
2019-03-03T15:46:12.924Z,80.14
2019-03-03T15:48:42.892Z,79.58
2019-03-03T15:51:13.182Z,79.95
2019-03-03T15:53:43.227Z,79.50
2019-03-03T15:56:13.251Z,79.59
2019-03-03T15:58:43.204Z,79.86
2019-03-03T16:01:15.854Z,80.11
2019-03-03T16:03:46.606Z,80.25
2019-03-03T16:06:16.640Z,80.35
2019-03-03T16:08:47.682Z,80.36
2019-03-03T16:11:18.020Z,80.42
2019-03-03T16:13:47.983Z,80.28
2019-03-03T16:16:17.933Z,80.43
2019-03-03T16:18:47.916Z,80.42
2019-03-03T16:21:18.323Z,80.23
2019-03-03T16:23:48.992Z,80.15
2019-03-03T16:26:19.481Z,79.88
2019-03-03T16:28:49.416Z,79.75
2019-03-03T16:31:19.406Z,79.77
2019-03-03T16:33:49.392Z,79.52
2019-03-03T16:36:19.407Z,79.51
2019-03-03T16:38:49.407Z,79.50
2019-03-03T16:41:19.670Z,79.32
2019-03-03T16:43:51.445Z,79.21
2019-03-03T16:46:21.820Z,79.15
2019-03-03T16:48:51.762Z,79.01
2019-03-03T16:51:22.218Z,78.99
2019-03-03T16:53:52.225Z,78.59
2019-03-03T16:56:22.270Z,78.35
2019-03-03T16:58:52.329Z,78.44
2019-03-03T17:01:22.372Z,78.21
2019-03-03T17:03:52.693Z,78.21
2019-03-03T17:06:22.706Z,78.27
2019-03-03T17:08:53.033Z,77.65
2019-03-03T17:11:23.022Z,77.83
2019-03-03T17:13:52.991Z,77.79
2019-03-03T17:16:23.329Z,77.66
2019-03-03T17:18:53.769Z,77.63
2019-03-03T17:21:23.774Z,77.60
2019-03-03T17:23:54.159Z,77.56
2019-03-03T17:26:24.138Z,77.10
2019-03-03T17:28:54.154Z,77.40
2019-03-03T17:31:24.106Z,77.57
2019-03-03T17:33:55.058Z,77.13
2019-03-03T17:36:25.042Z,77.11
2019-03-03T17:38:54.911Z,77.28
2019-03-03T17:41:24.868Z,77.39
2019-03-03T17:43:54.844Z,77.45
2019-03-03T17:46:24.853Z,77.46
2019-03-03T17:48:54.835Z,77.51
2019-03-03T17:51:24.819Z,77.40
2019-03-03T17:53:54.770Z,77.29
2019-03-03T17:56:25.079Z,77.17
2019-03-03T17:58:55.121Z,77.32
2019-03-03T18:01:25.089Z,77.43
2019-03-03T18:03:55.054Z,77.29
2019-03-03T18:06:24.973Z,77.14
2019-03-03T18:08:55.033Z,77.32
2019-03-03T18:11:25.012Z,77.18
2019-03-03T18:13:55.412Z,77.30
2019-03-03T18:16:25.414Z,77.45
2019-03-03T18:18:55.731Z,77.40
2019-03-03T18:21:27.296Z,77.32
2019-03-03T18:23:57.307Z,77.25
2019-03-03T18:26:27.284Z,77.22
2019-03-03T18:28:57.247Z,77.25
2019-03-03T18:31:27.473Z,77.39
2019-03-03T18:33:57.479Z,77.23
2019-03-03T18:36:29.175Z,77.20
2019-03-03T18:38:59.810Z,76.79
2019-03-03T18:41:30.070Z,76.73
2019-03-03T18:44:00.034Z,76.42
2019-03-03T18:46:29.990Z,76.42
2019-03-03T18:48:59.956Z,75.96
2019-03-03T18:51:29.921Z,75.84
2019-03-03T18:54:01.086Z,76.05
2019-03-03T18:56:31.114Z,76.05
2019-03-03T18:59:01.430Z,75.87
2019-03-03T19:01:31.459Z,75.90
2019-03-03T19:04:01.695Z,76.06
2019-03-03T19:06:31.741Z,76.01
2019-03-03T19:09:01.832Z,75.95
2019-03-03T19:11:33.408Z,75.76
2019-03-03T19:14:03.419Z,75.99
2019-03-03T19:16:36.173Z,76.01
2019-03-03T19:19:07.589Z,76.02
2019-03-03T19:21:37.675Z,75.81
2019-03-03T19:24:07.707Z,75.51
2019-03-03T19:26:37.770Z,75.64
2019-03-03T19:29:09.760Z,75.80
2019-03-03T19:31:41.157Z,76.00
2019-03-03T19:34:11.192Z,76.05
2019-03-03T19:36:41.250Z,76.09
2019-03-03T19:39:11.675Z,76.07
2019-03-03T19:41:43.278Z,75.82
2019-03-03T19:44:19.418Z,75.62
2019-03-03T19:46:49.671Z,75.93
2019-03-03T19:49:19.744Z,75.85
2019-03-03T19:51:50.118Z,75.80
2019-03-03T19:54:20.498Z,75.70
2019-03-03T19:56:50.894Z,75.84
2019-03-03T19:59:20.849Z,75.82
2019-03-03T20:01:51.051Z,76.08
2019-03-03T20:04:21.399Z,76.11
2019-03-03T20:06:53.345Z,76.03
2019-03-03T20:09:25.626Z,76.08
2019-03-03T20:11:55.962Z,76.07
2019-03-03T20:14:26.499Z,76.25
2019-03-03T20:16:56.875Z,76.00
2019-03-03T20:19:30.674Z,76.17
2019-03-03T20:22:00.916Z,76.17
2019-03-03T20:24:31.512Z,76.25
2019-03-03T20:27:01.807Z,76.17
2019-03-03T20:29:32.332Z,76.09
2019-03-03T20:32:02.362Z,76.69
2019-03-03T20:34:35.282Z,76.84
2019-03-03T20:37:05.276Z,76.58
2019-03-03T20:39:35.420Z,76.78
2019-03-03T20:42:09.667Z,77.17
2019-03-03T20:44:41.706Z,77.25
2019-03-03T20:47:13.208Z,77.09
2019-03-03T20:49:43.231Z,77.21
2019-03-03T20:52:13.541Z,77.27
2019-03-03T20:55:02.607Z,77.24
2019-03-03T20:57:36.599Z,77.24
2019-03-03T21:00:27.054Z,77.33
2019-03-03T21:02:58.926Z,77.32
2019-03-03T21:05:32.351Z,77.47
2019-03-03T21:08:03.806Z,77.65
2019-03-03T21:10:33.917Z,77.58
2019-03-03T21:13:05.808Z,77.67
2019-03-03T21:15:35.793Z,77.83
2019-03-03T21:18:09.762Z,78.12
2019-03-03T21:20:39.847Z,78.05
2019-03-03T21:23:10.457Z,78.06
2019-03-03T21:25:40.779Z,78.40
2019-03-03T21:28:10.804Z,78.23
2019-03-03T21:30:40.812Z,78.27
2019-03-03T21:33:10.905Z,78.15
2019-03-03T21:35:42.531Z,78.18
2019-03-03T21:38:13.901Z,78.23
2019-03-03T21:40:44.255Z,78.28
2019-03-03T21:43:34.427Z,78.23
2019-03-03T21:46:04.370Z,78.27
2019-03-03T21:48:34.353Z,78.21
2019-03-03T21:51:04.968Z,77.94
2019-03-03T21:53:34.945Z,77.99
2019-03-03T21:56:04.944Z,78.14
2019-03-03T21:58:35.309Z,77.87
2019-03-03T22:01:07.699Z,77.95
2019-03-03T22:03:38.310Z,78.12
2019-03-03T22:06:12.619Z,78.20
2019-03-03T22:08:43.207Z,78.19
2019-03-03T22:11:14.920Z,78.18
2019-03-03T22:13:45.438Z,78.30
2019-03-03T22:16:15.584Z,78.31
2019-03-03T22:18:45.876Z,78.10
2019-03-03T22:21:16.432Z,78.23
2019-03-03T22:23:46.542Z,78.22
2019-03-03T22:26:16.583Z,78.10
2019-03-03T22:28:47.105Z,78.06
2019-03-03T22:31:19.014Z,78.16
2019-03-03T22:33:49.035Z,78.10
2019-03-03T22:36:19.662Z,77.99
2019-03-03T22:38:49.732Z,77.84
2019-03-03T22:41:19.907Z,77.65
2019-03-03T22:43:49.886Z,77.75
2019-03-03T22:46:20.154Z,77.68
2019-03-03T22:48:50.126Z,77.55
2019-03-03T22:51:20.081Z,77.43
2019-03-03T22:53:49.976Z,77.33
2019-03-03T22:56:19.935Z,77.35
2019-03-03T22:58:50.260Z,77.31
2019-03-03T23:01:23.571Z,77.21
2019-03-03T23:04:09.343Z,77.31
2019-03-03T23:06:44.723Z,77.22
2019-03-03T23:09:48.774Z,77.26
2019-03-03T23:13:03.034Z,77.24
2019-03-03T23:15:48.469Z,77.30
2019-03-03T23:19:17.570Z,77.16
2019-03-03T23:22:35.384Z,77.21
2019-03-03T23:25:54.788Z,77.29
2019-03-03T23:28:25.522Z,77.12
2019-03-03T23:30:56.825Z,76.91
2019-03-03T23:33:28.064Z,77.01
2019-03-03T23:35:58.034Z,76.73
2019-03-03T23:38:27.985Z,76.52
2019-03-03T23:40:58.866Z,76.30
2019-03-03T23:43:28.842Z,76.06
2019-03-03T23:45:59.748Z,75.87
2019-03-03T23:48:31.626Z,75.77
2019-03-03T23:51:01.606Z,75.63
2019-03-03T23:53:31.499Z,75.52
2019-03-03T23:56:01.380Z,75.31
2019-03-03T23:58:31.364Z,75.26
